sensor_id;sensor_type;location;lat;lon;timestamp;P1;P2;P0
35654;PMS1003;21773;50.010;19.972;2023-05-10T00:02:12;24.00;22.20;20.00
35654;PMS1003;21773;50.010;19.972;2023-05-10T00:05:17;19.00;18.00;17.00
35654;PMS1003;21773;50.010;19.972;2023-05-10T00:08:21;17.80;16.60;14.80
35654;PMS1003;21773;50.010;19.972;2023-05-10T00:11:24;18.40;17.40;15.80
35654;PMS1003;21773;50.010;19.972;2023-05-10T00:14:28;15.00;15.00;13.25
35654;PMS1003;21773;50.010;19.972;2023-05-10T00:17:31;20.40;19.40;17.40
35654;PMS1003;21773;50.010;19.972;2023-05-10T00:20:36;21.20;20.00;18.00
35654;PMS1003;21773;50.010;19.972;2023-05-10T00:23:39;18.00;17.00;16.00
35654;PMS1003;21773;50.010;19.972;2023-05-10T00:26:43;16.80;16.00;14.20
35654;PMS1003;21773;50.010;19.972;2023-05-10T00:29:46;18.25;17.25;16.00
35654;PMS1003;21773;50.010;19.972;2023-05-10T00:32:49;19.40;18.00;17.00
35654;PMS1003;21773;50.010;19.972;2023-05-10T00:35:54;19.40;18.40;16.00
35654;PMS1003;21773;50.010;19.972;2023-05-10T00:38:58;17.60;16.60;14.60
35654;PMS1003;21773;50.010;19.972;2023-05-10T00:42:01;18.60;18.00;16.00
35654;PMS1003;21773;50.010;19.972;2023-05-10T00:45:06;16.67;16.67;15.00
35654;PMS1003;21773;50.010;19.972;2023-05-10T00:48:10;20.00;17.50;16.50
35654;PMS1003;21773;50.010;19.972;2023-05-10T00:51:15;15.00;14.75;13.75
35654;PMS1003;21773;50.010;19.972;2023-05-10T00:54:19;16.60;15.60;13.60
35654;PMS1003;21773;50.010;19.972;2023-05-10T00:57:22;14.60;13.60;12.60
35654;PMS1003;21773;50.010;19.972;2023-05-10T01:00:27;15.60;15.60;14.40
35654;PMS1003;21773;50.010;19.972;2023-05-10T01:03:31;20.00;19.00;17.00
35654;PMS1003;21773;50.010;19.972;2023-05-10T01:06:36;14.20;13.60;12.00
35654;PMS1003;21773;50.010;19.972;2023-05-10T01:09:40;16.00;16.00;14.40
35654;PMS1003;21773;50.010;19.972;2023-05-10T01:12:46;18.25;17.00;15.00
35654;PMS1003;21773;50.010;19.972;2023-05-10T01:15:50;19.60;18.60;16.00
35654;PMS1003;21773;50.010;19.972;2023-05-10T01:18:53;19.00;18.60;18.00
35654;PMS1003;21773;50.010;19.972;2023-05-10T01:22:04;16.00;16.00;15.00
35654;PMS1003;21773;50.010;19.972;2023-05-10T01:25:24;16.25;16.00;14.00
35654;PMS1003;21773;50.010;19.972;2023-05-10T01:28:45;17.00;16.75;14.75
35654;PMS1003;21773;50.010;19.972;2023-05-10T01:32:20;18.00;15.00;13.00
35654;PMS1003;21773;50.010;19.972;2023-05-10T01:35:33;17.00;15.00;14.00
35654;PMS1003;21773;50.010;19.972;2023-05-10T01:38:43;16.00;14.00;13.00
35654;PMS1003;21773;50.010;19.972;2023-05-10T01:41:54;19.00;17.00;15.00
35654;PMS1003;21773;50.010;19.972;2023-05-10T01:45:06;18.00;16.00;13.00
35654;PMS1003;21773;50.010;19.972;2023-05-10T01:48:18;16.00;15.60;14.00
35654;PMS1003;21773;50.010;19.972;2023-05-10T01:51:24;19.40;17.40;14.60
35654;PMS1003;21773;50.010;19.972;2023-05-10T01:54:30;21.00;20.00;18.00
35654;PMS1003;21773;50.010;19.972;2023-05-10T01:57:36;21.00;20.00;18.00
35654;PMS1003;21773;50.010;19.972;2023-05-10T02:00:42;19.80;18.20;17.00
35654;PMS1003;21773;50.010;19.972;2023-05-10T02:03:48;21.80;19.00;16.20
35654;PMS1003;21773;50.010;19.972;2023-05-10T02:06:54;21.00;19.50;18.00
35654;PMS1003;21773;50.010;19.972;2023-05-10T02:09:59;20.33;19.33;18.33
35654;PMS1003;21773;50.010;19.972;2023-05-10T02:13:04;21.00;20.00;17.00
35654;PMS1003;21773;50.010;19.972;2023-05-10T02:16:10;18.60;18.20;17.00
35654;PMS1003;21773;50.010;19.972;2023-05-10T02:19:17;18.25;17.00;16.00
35654;PMS1003;21773;50.010;19.972;2023-05-10T02:22:22;18.00;18.00;17.00
35654;PMS1003;21773;50.010;19.972;2023-05-10T02:25:28;20.40;20.40;18.40
35654;PMS1003;21773;50.010;19.972;2023-05-10T02:28:33;21.00;19.40;17.40
35654;PMS1003;21773;50.010;19.972;2023-05-10T02:31:39;20.60;19.20;17.60
35654;PMS1003;21773;50.010;19.972;2023-05-10T02:34:46;20.60;18.20;17.20
35654;PMS1003;21773;50.010;19.972;2023-05-10T02:37:53;21.25;19.00;18.00
35654;PMS1003;21773;50.010;19.972;2023-05-10T02:40:59;17.00;16.00;15.20
35654;PMS1003;21773;50.010;19.972;2023-05-10T02:44:02;19.60;18.00;16.00
35654;PMS1003;21773;50.010;19.972;2023-05-10T02:47:11;17.60;16.00;15.00
35654;PMS1003;21773;50.010;19.972;2023-05-10T02:50:16;16.60;16.20;15.00
35654;PMS1003;21773;50.010;19.972;2023-05-10T02:53:23;17.80;16.80;15.00
35654;PMS1003;21773;50.010;19.972;2023-05-10T02:56:35;15.00;15.00;14.00
35654;PMS1003;21773;50.010;19.972;2023-05-10T02:59:43;17.00;15.75;14.00
35654;PMS1003;21773;50.010;19.972;2023-05-10T03:02:47;14.25;13.25;12.25
35654;PMS1003;21773;50.010;19.972;2023-05-10T03:05:52;13.75;13.75;12.50
35654;PMS1003;21773;50.010;19.972;2023-05-10T03:08:58;14.40;13.00;12.00
35654;PMS1003;21773;50.010;19.972;2023-05-10T03:12:03;13.67;12.67;11.67
35654;PMS1003;21773;50.010;19.972;2023-05-10T03:15:17;12.60;11.00;11.00
35654;PMS1003;21773;50.010;19.972;2023-05-10T03:18:28;12.00;11.60;10.60
35654;PMS1003;21773;50.010;19.972;2023-05-10T03:21:38;13.60;13.60;11.60
35654;PMS1003;21773;50.010;19.972;2023-05-10T03:24:46;12.00;11.00;9.25
35654;PMS1003;21773;50.010;19.972;2023-05-10T03:27:52;12.20;11.00;10.00
35654;PMS1003;21773;50.010;19.972;2023-05-10T03:30:58;16.00;15.00;14.00
35654;PMS1003;21773;50.010;19.972;2023-05-10T03:34:04;13.60;13.00;11.00
35654;PMS1003;21773;50.010;19.972;2023-05-10T03:37:09;11.20;10.20;9.00
35654;PMS1003;21773;50.010;19.972;2023-05-10T03:40:12;13.00;12.00;11.00
35654;PMS1003;21773;50.010;19.972;2023-05-10T03:43:17;13.00;12.00;10.00
35654;PMS1003;21773;50.010;19.972;2023-05-10T03:46:21;14.00;14.00;13.00
35654;PMS1003;21773;50.010;19.972;2023-05-10T03:49:24;12.80;11.20;9.60
35654;PMS1003;21773;50.010;19.972;2023-05-10T03:52:29;15.60;13.60;12.60
35654;PMS1003;21773;50.010;19.972;2023-05-10T03:55:33;13.80;13.40;12.00
35654;PMS1003;21773;50.010;19.972;2023-05-10T03:58:38;10.20;9.20;7.20
35654;PMS1003;21773;50.010;19.972;2023-05-10T04:01:41;11.80;11.80;10.80
35654;PMS1003;21773;50.010;19.972;2023-05-10T04:04:44;12.00;11.00;10.00
35654;PMS1003;21773;50.010;19.972;2023-05-10T04:07:49;11.40;11.00;10.40
35654;PMS1003;21773;50.010;19.972;2023-05-10T04:10:52;11.75;11.75;10.00
35654;PMS1003;21773;50.010;19.972;2023-05-10T04:13:56;10.00;10.00;8.60
35654;PMS1003;21773;50.010;19.972;2023-05-10T04:16:59;12.00;11.00;10.40
35654;PMS1003;21773;50.010;19.972;2023-05-10T04:20:03;14.20;13.00;11.20
35654;PMS1003;21773;50.010;19.972;2023-05-10T04:23:09;13.60;12.00;11.00
35654;PMS1003;21773;50.010;19.972;2023-05-10T04:26:13;12.50;12.00;11.00
35654;PMS1003;21773;50.010;19.972;2023-05-10T04:29:16;13.00;11.00;10.00
35654;PMS1003;21773;50.010;19.972;2023-05-10T04:32:19;13.20;13.00;11.00
35654;PMS1003;21773;50.010;19.972;2023-05-10T04:35:23;12.75;11.00;10.00
35654;PMS1003;21773;50.010;19.972;2023-05-10T04:38:27;13.00;12.00;10.60
35654;PMS1003;21773;50.010;19.972;2023-05-10T04:41:31;11.00;11.00;9.20
35654;PMS1003;21773;50.010;19.972;2023-05-10T04:44:34;13.00;12.00;10.00
35654;PMS1003;21773;50.010;19.972;2023-05-10T04:47:38;12.00;10.40;10.00
35654;PMS1003;21773;50.010;19.972;2023-05-10T04:50:41;9.00;8.40;7.00
35654;PMS1003;21773;50.010;19.972;2023-05-10T04:53:46;10.00;9.00;8.00
35654;PMS1003;21773;50.010;19.972;2023-05-10T04:57:05;15.00;13.00;11.40
35654;PMS1003;21773;50.010;19.972;2023-05-10T05:00:09;9.20;9.00;8.00
35654;PMS1003;21773;50.010;19.972;2023-05-10T05:03:13;11.00;11.00;10.60
35654;PMS1003;21773;50.010;19.972;2023-05-10T05:06:16;11.00;9.00;8.80
35654;PMS1003;21773;50.010;19.972;2023-05-10T05:09:21;11.00;10.00;9.00
35654;PMS1003;21773;50.010;19.972;2023-05-10T05:12:24;10.00;9.25;8.25
35654;PMS1003;21773;50.010;19.972;2023-05-10T05:15:28;13.80;12.00;11.80
35654;PMS1003;21773;50.010;19.972;2023-05-10T05:18:32;11.50;10.00;9.00
35654;PMS1003;21773;50.010;19.972;2023-05-10T05:21:35;11.40;10.00;9.60
35654;PMS1003;21773;50.010;19.972;2023-05-10T05:24:40;10.00;9.20;8.80
35654;PMS1003;21773;50.010;19.972;2023-05-10T05:27:43;12.00;11.50;11.00
35654;PMS1003;21773;50.010;19.972;2023-05-10T05:30:47;11.00;11.00;10.00
35654;PMS1003;21773;50.010;19.972;2023-05-10T05:33:50;10.20;9.00;7.60
35654;PMS1003;21773;50.010;19.972;2023-05-10T05:36:53;10.80;10.00;9.00
35654;PMS1003;21773;50.010;19.972;2023-05-10T05:39:58;11.75;11.75;10.75
35654;PMS1003;21773;50.010;19.972;2023-05-10T05:43:03;11.40;11.40;9.40
35654;PMS1003;21773;50.010;19.972;2023-05-10T05:46:06;11.00;9.50;9.00
35654;PMS1003;21773;50.010;19.972;2023-05-10T05:49:10;9.00;9.00;8.00
35654;PMS1003;21773;50.010;19.972;2023-05-10T05:52:14;11.40;10.40;9.60
35654;PMS1003;21773;50.010;19.972;2023-05-10T05:55:19;12.00;11.00;10.40
35654;PMS1003;21773;50.010;19.972;2023-05-10T05:58:23;11.60;10.60;9.00
35654;PMS1003;21773;50.010;19.972;2023-05-10T06:01:26;12.00;11.00;10.00
35654;PMS1003;21773;50.010;19.972;2023-05-10T06:04:30;13.00;11.00;10.00
35654;PMS1003;21773;50.010;19.972;2023-05-10T06:07:33;13.00;12.00;11.00
35654;PMS1003;21773;50.010;19.972;2023-05-10T06:10:38;12.60;12.40;10.60
35654;PMS1003;21773;50.010;19.972;2023-05-10T06:13:41;11.20;9.20;8.00
35654;PMS1003;21773;50.010;19.972;2023-05-10T06:16:44;11.75;11.00;9.75
35654;PMS1003;21773;50.010;19.972;2023-05-10T06:19:48;9.50;9.50;8.00
35654;PMS1003;21773;50.010;19.972;2023-05-10T06:22:51;10.75;10.75;9.75
35654;PMS1003;21773;50.010;19.972;2023-05-10T06:25:56;11.25;10.25;9.00
35654;PMS1003;21773;50.010;19.972;2023-05-10T06:28:59;9.00;9.00;8.00
35654;PMS1003;21773;50.010;19.972;2023-05-10T06:32:03;11.00;10.00;9.00
35654;PMS1003;21773;50.010;19.972;2023-05-10T06:35:06;9.00;8.00;7.00
35654;PMS1003;21773;50.010;19.972;2023-05-10T06:38:11;9.75;8.75;8.00
35654;PMS1003;21773;50.010;19.972;2023-05-10T06:41:15;9.00;9.00;8.00
35654;PMS1003;21773;50.010;19.972;2023-05-10T06:44:19;11.40;10.40;9.40
35654;PMS1003;21773;50.010;19.972;2023-05-10T06:47:22;11.00;9.50;7.00
35654;PMS1003;21773;50.010;19.972;2023-05-10T06:50:25;13.00;12.00;11.00
35654;PMS1003;21773;50.010;19.972;2023-05-10T06:53:28;10.67;10.00;9.00
35654;PMS1003;21773;50.010;19.972;2023-05-10T06:56:34;10.75;9.00;8.75
35654;PMS1003;21773;50.010;19.972;2023-05-10T06:59:37;8.00;8.00;6.67
35654;PMS1003;21773;50.010;19.972;2023-05-10T07:02:40;8.20;8.20;7.20
35654;PMS1003;21773;50.010;19.972;2023-05-10T07:05:43;9.00;9.00;7.00
35654;PMS1003;21773;50.010;19.972;2023-05-10T07:08:47;10.00;10.00;9.00
35654;PMS1003;21773;50.010;19.972;2023-05-10T07:11:51;9.40;8.40;8.00
35654;PMS1003;21773;50.010;19.972;2023-05-10T07:14:55;8.20;8.20;7.20
35654;PMS1003;21773;50.010;19.972;2023-05-10T07:17:58;9.00;8.60;7.00
35654;PMS1003;21773;50.010;19.972;2023-05-10T07:21:02;9.00;7.00;6.00
35654;PMS1003;21773;50.010;19.972;2023-05-10T07:24:05;8.00;7.80;7.00
35654;PMS1003;21773;50.010;19.972;2023-05-10T07:27:10;8.80;7.80;7.00
35654;PMS1003;21773;50.010;19.972;2023-05-10T07:30:14;7.20;6.60;6.00
35654;PMS1003;21773;50.010;19.972;2023-05-10T07:33:17;7.00;7.00;6.00
35654;PMS1003;21773;50.010;19.972;2023-05-10T07:36:21;8.00;7.00;6.50
35654;PMS1003;21773;50.010;19.972;2023-05-10T07:39:25;9.40;9.40;8.40
35654;PMS1003;21773;50.010;19.972;2023-05-10T07:42:30;8.40;8.00;7.00
35654;PMS1003;21773;50.010;19.972;2023-05-10T07:45:34;8.40;7.80;7.00
35654;PMS1003;21773;50.010;19.972;2023-05-10T07:48:37;8.00;7.00;6.60
35654;PMS1003;21773;50.010;19.972;2023-05-10T07:51:40;8.00;8.00;7.50
35654;PMS1003;21773;50.010;19.972;2023-05-10T07:54:44;8.75;8.00;8.00
35654;PMS1003;21773;50.010;19.972;2023-05-10T07:57:49;5.60;5.60;5.00
35654;PMS1003;21773;50.010;19.972;2023-05-10T08:00:52;8.00;8.00;7.00
35654;PMS1003;21773;50.010;19.972;2023-05-10T08:03:56;6.80;6.00;5.20
35654;PMS1003;21773;50.010;19.972;2023-05-10T08:06:59;8.60;8.00;7.00
35654;PMS1003;21773;50.010;19.972;2023-05-10T08:10:03;7.60;7.00;6.60
35654;PMS1003;21773;50.010;19.972;2023-05-10T08:13:08;6.75;6.00;5.25
35654;PMS1003;21773;50.010;19.972;2023-05-10T08:16:11;6.60;6.00;5.60
35654;PMS1003;21773;50.010;19.972;2023-05-10T08:19:15;7.00;6.80;6.20
35654;PMS1003;21773;50.010;19.972;2023-05-10T08:22:20;6.00;5.80;4.80
35654;PMS1003;21773;50.010;19.972;2023-05-10T08:25:24;6.75;6.75;6.00
35654;PMS1003;21773;50.010;19.972;2023-05-10T08:28:29;5.00;5.00;4.00
35654;PMS1003;21773;50.010;19.972;2023-05-10T08:31:32;5.00;5.00;5.00
35654;PMS1003;21773;50.010;19.972;2023-05-10T08:34:36;5.00;5.00;4.00
35654;PMS1003;21773;50.010;19.972;2023-05-10T08:37:39;5.00;5.00;4.40
35654;PMS1003;21773;50.010;19.972;2023-05-10T08:40:42;5.40;4.40;4.00
35654;PMS1003;21773;50.010;19.972;2023-05-10T08:43:49;4.00;4.00;4.00
35654;PMS1003;21773;50.010;19.972;2023-05-10T08:46:53;5.00;4.00;4.00
35654;PMS1003;21773;50.010;19.972;2023-05-10T08:49:57;4.00;4.00;4.00
35654;PMS1003;21773;50.010;19.972;2023-05-10T08:53:03;4.50;4.50;4.50
35654;PMS1003;21773;50.010;19.972;2023-05-10T08:56:08;4.00;4.00;3.00
35654;PMS1003;21773;50.010;19.972;2023-05-10T08:59:13;4.00;3.80;3.40
35654;PMS1003;21773;50.010;19.972;2023-05-10T09:02:18;4.00;4.00;3.50
35654;PMS1003;21773;50.010;19.972;2023-05-10T09:05:22;6.00;5.00;4.00
35654;PMS1003;21773;50.010;19.972;2023-05-10T09:08:26;5.00;5.00;4.00
35654;PMS1003;21773;50.010;19.972;2023-05-10T09:11:29;5.60;5.00;5.00
35654;PMS1003;21773;50.010;19.972;2023-05-10T09:14:35;5.00;5.00;5.00
35654;PMS1003;21773;50.010;19.972;2023-05-10T09:17:38;6.00;5.00;5.00
35654;PMS1003;21773;50.010;19.972;2023-05-10T09:20:43;4.00;3.50;3.00
35654;PMS1003;21773;50.010;19.972;2023-05-10T09:23:47;4.60;4.00;4.00
35654;PMS1003;21773;50.010;19.972;2023-05-10T09:26:51;4.00;4.00;4.00
35654;PMS1003;21773;50.010;19.972;2023-05-10T09:29:57;4.00;4.00;3.00
35654;PMS1003;21773;50.010;19.972;2023-05-10T09:33:00;3.00;3.00;3.00
35654;PMS1003;21773;50.010;19.972;2023-05-10T09:36:06;5.00;4.00;3.60
35654;PMS1003;21773;50.010;19.972;2023-05-10T09:39:11;4.00;4.00;3.60
35654;PMS1003;21773;50.010;19.972;2023-05-10T09:42:17;4.00;4.00;4.00
35654;PMS1003;21773;50.010;19.972;2023-05-10T09:45:23;5.00;5.00;4.00
35654;PMS1003;21773;50.010;19.972;2023-05-10T09:48:27;5.00;4.00;3.40
35654;PMS1003;21773;50.010;19.972;2023-05-10T09:51:30;3.00;3.00;3.00
35654;PMS1003;21773;50.010;19.972;2023-05-10T09:54:37;4.00;3.00;3.00
35654;PMS1003;21773;50.010;19.972;2023-05-10T09:57:40;4.60;4.60;4.60
35654;PMS1003;21773;50.010;19.972;2023-05-10T10:00:45;4.00;3.00;3.00
35654;PMS1003;21773;50.010;19.972;2023-05-10T10:03:53;3.20;3.20;3.00
35654;PMS1003;21773;50.010;19.972;2023-05-10T10:07:00;5.00;4.50;4.00
35654;PMS1003;21773;50.010;19.972;2023-05-10T10:10:04;4.75;4.00;4.00
35654;PMS1003;21773;50.010;19.972;2023-05-10T10:13:13;4.00;3.00;3.00
35654;PMS1003;21773;50.010;19.972;2023-05-10T10:16:18;3.75;3.00;3.00
35654;PMS1003;21773;50.010;19.972;2023-05-10T10:19:22;3.60;3.60;3.00
35654;PMS1003;21773;50.010;19.972;2023-05-10T10:22:26;4.00;4.00;4.00
35654;PMS1003;21773;50.010;19.972;2023-05-10T10:25:29;4.00;4.00;4.00
35654;PMS1003;21773;50.010;19.972;2023-05-10T10:28:34;5.00;4.00;4.00
35654;PMS1003;21773;50.010;19.972;2023-05-10T10:31:47;3.00;3.00;2.50
35654;PMS1003;21773;50.010;19.972;2023-05-10T10:34:59;5.00;5.00;5.00
35654;PMS1003;21773;50.010;19.972;2023-05-10T10:38:03;4.40;4.40;4.40
35654;PMS1003;21773;50.010;19.972;2023-05-10T10:41:09;4.00;3.40;3.00
35654;PMS1003;21773;50.010;19.972;2023-05-10T10:44:23;4.40;3.40;3.40
35654;PMS1003;21773;50.010;19.972;2023-05-10T10:47:29;5.00;4.60;4.00
35654;PMS1003;21773;50.010;19.972;2023-05-10T10:50:43;6.00;6.00;5.25
35654;PMS1003;21773;50.010;19.972;2023-05-10T10:53:47;4.00;4.00;4.00
35654;PMS1003;21773;50.010;19.972;2023-05-10T11:00:19;3.40;3.40;3.00
35654;PMS1003;21773;50.010;19.972;2023-05-10T11:03:31;5.00;5.00;4.00
35654;PMS1003;21773;50.010;19.972;2023-05-10T11:06:35;3.60;3.00;2.60
35654;PMS1003;21773;50.010;19.972;2023-05-10T11:09:39;4.60;3.60;3.60
35654;PMS1003;21773;50.010;19.972;2023-05-10T11:12:50;3.75;3.00;2.75
35654;PMS1003;21773;50.010;19.972;2023-05-10T11:15:54;5.40;5.40;5.40
35654;PMS1003;21773;50.010;19.972;2023-05-10T11:19:01;3.75;3.75;3.75
35654;PMS1003;21773;50.010;19.972;2023-05-10T11:22:12;4.40;4.00;3.40
35654;PMS1003;21773;50.010;19.972;2023-05-10T11:25:16;4.00;4.00;3.25
35654;PMS1003;21773;50.010;19.972;2023-05-10T11:28:19;3.80;3.80;3.00
35654;PMS1003;21773;50.010;19.972;2023-05-10T11:31:22;4.00;4.00;3.00
35654;PMS1003;21773;50.010;19.972;2023-05-10T11:34:30;5.00;5.00;4.00
35654;PMS1003;21773;50.010;19.972;2023-05-10T11:37:35;4.80;4.00;4.00
35654;PMS1003;21773;50.010;19.972;2023-05-10T11:40:43;4.00;4.00;4.00
35654;PMS1003;21773;50.010;19.972;2023-05-10T11:43:46;3.20;3.00;3.00
35654;PMS1003;21773;50.010;19.972;2023-05-10T11:46:50;2.00;2.00;2.00
35654;PMS1003;21773;50.010;19.972;2023-05-10T11:49:56;3.20;3.00;3.00
35654;PMS1003;21773;50.010;19.972;2023-05-10T11:53:00;5.00;5.00;5.00
35654;PMS1003;21773;50.010;19.972;2023-05-10T11:56:03;4.00;3.00;3.00
35654;PMS1003;21773;50.010;19.972;2023-05-10T11:59:08;4.80;4.80;4.00
35654;PMS1003;21773;50.010;19.972;2023-05-10T12:02:11;4.00;4.00;3.00
35654;PMS1003;21773;50.010;19.972;2023-05-10T12:05:18;3.00;3.00;3.00
35654;PMS1003;21773;50.010;19.972;2023-05-10T12:08:21;3.00;3.00;3.00
35654;PMS1003;21773;50.010;19.972;2023-05-10T12:11:27;2.25;2.25;2.00
35654;PMS1003;21773;50.010;19.972;2023-05-10T12:14:33;5.00;5.00;5.00
35654;PMS1003;21773;50.010;19.972;2023-05-10T12:17:37;4.25;4.25;4.00
35654;PMS1003;21773;50.010;19.972;2023-05-10T12:20:45;4.00;4.00;3.50
35654;PMS1003;21773;50.010;19.972;2023-05-10T12:23:49;4.20;4.00;4.00
35654;PMS1003;21773;50.010;19.972;2023-05-10T12:26:53;4.00;4.00;4.00
35654;PMS1003;21773;50.010;19.972;2023-05-10T12:30:18;3.00;3.00;3.00
35654;PMS1003;21773;50.010;19.972;2023-05-10T12:33:23;3.60;3.00;3.00
35654;PMS1003;21773;50.010;19.972;2023-05-10T12:36:28;4.00;4.00;3.00
35654;PMS1003;21773;50.010;19.972;2023-05-10T12:39:38;4.00;4.00;3.00
35654;PMS1003;21773;50.010;19.972;2023-05-10T12:42:42;3.00;3.00;3.00
35654;PMS1003;21773;50.010;19.972;2023-05-10T12:45:46;4.00;4.00;3.40
35654;PMS1003;21773;50.010;19.972;2023-05-10T12:48:50;3.00;3.00;2.50
35654;PMS1003;21773;50.010;19.972;2023-05-10T12:52:11;5.00;4.00;3.50
35654;PMS1003;21773;50.010;19.972;2023-05-10T12:55:14;3.00;3.00;3.00
35654;PMS1003;21773;50.010;19.972;2023-05-10T12:58:17;2.67;2.67;2.00
35654;PMS1003;21773;50.010;19.972;2023-05-10T13:01:36;4.00;4.00;4.00
35654;PMS1003;21773;50.010;19.972;2023-05-10T13:04:40;3.40;3.40;3.00
35654;PMS1003;21773;50.010;19.972;2023-05-10T13:07:45;5.00;4.00;4.00
35654;PMS1003;21773;50.010;19.972;2023-05-10T13:10:48;4.00;4.00;3.00
35654;PMS1003;21773;50.010;19.972;2023-05-10T13:13:51;3.40;3.00;3.00
35654;PMS1003;21773;50.010;19.972;2023-05-10T13:16:54;4.00;4.00;3.80
35654;PMS1003;21773;50.010;19.972;2023-05-10T13:19:58;4.00;4.00;3.00
35654;PMS1003;21773;50.010;19.972;2023-05-10T13:23:02;4.40;3.40;3.00
35654;PMS1003;21773;50.010;19.972;2023-05-10T13:26:06;5.00;4.00;4.00
35654;PMS1003;21773;50.010;19.972;2023-05-10T13:29:09;4.00;3.40;3.00
35654;PMS1003;21773;50.010;19.972;2023-05-10T13:32:12;3.25;3.25;3.25
35654;PMS1003;21773;50.010;19.972;2023-05-10T13:35:16;3.00;3.00;3.00
35654;PMS1003;21773;50.010;19.972;2023-05-10T13:38:20;4.40;4.40;4.00
35654;PMS1003;21773;50.010;19.972;2023-05-10T13:41:23;5.00;4.00;3.00
35654;PMS1003;21773;50.010;19.972;2023-05-10T13:44:27;5.00;4.00;3.00
35654;PMS1003;21773;50.010;19.972;2023-05-10T13:47:30;4.00;3.20;3.00
35654;PMS1003;21773;50.010;19.972;2023-05-10T13:50:33;4.80;4.00;3.80
35654;PMS1003;21773;50.010;19.972;2023-05-10T13:53:38;4.40;4.00;4.00
35654;PMS1003;21773;50.010;19.972;2023-05-10T13:56:41;5.00;4.00;3.00
35654;PMS1003;21773;50.010;19.972;2023-05-10T13:59:45;6.00;6.00;5.00
35654;PMS1003;21773;50.010;19.972;2023-05-10T14:02:48;5.00;4.00;3.50
35654;PMS1003;21773;50.010;19.972;2023-05-10T14:05:51;3.00;3.00;3.00
35654;PMS1003;21773;50.010;19.972;2023-05-10T14:08:56;4.00;4.00;4.00
35654;PMS1003;21773;50.010;19.972;2023-05-10T14:11:59;5.00;4.00;3.40
35654;PMS1003;21773;50.010;19.972;2023-05-10T14:15:03;5.00;4.00;4.00
35654;PMS1003;21773;50.010;19.972;2023-05-10T14:18:08;3.00;3.00;3.00
35654;PMS1003;21773;50.010;19.972;2023-05-10T14:21:11;6.00;5.00;5.00
35654;PMS1003;21773;50.010;19.972;2023-05-10T14:24:16;4.80;4.80;4.80
35654;PMS1003;21773;50.010;19.972;2023-05-10T14:27:19;4.40;4.40;4.00
35654;PMS1003;21773;50.010;19.972;2023-05-10T14:30:23;5.75;4.25;4.00
35654;PMS1003;21773;50.010;19.972;2023-05-10T14:33:26;4.00;4.00;3.80
35654;PMS1003;21773;50.010;19.972;2023-05-10T14:36:29;4.00;4.00;3.75
35654;PMS1003;21773;50.010;19.972;2023-05-10T14:39:34;4.00;4.00;4.00
35654;PMS1003;21773;50.010;19.972;2023-05-10T14:42:38;4.00;4.00;4.00
35654;PMS1003;21773;50.010;19.972;2023-05-10T14:45:41;4.40;4.40;4.40
35654;PMS1003;21773;50.010;19.972;2023-05-10T14:48:46;5.00;5.00;5.00
35654;PMS1003;21773;50.010;19.972;2023-05-10T14:51:52;5.00;4.00;4.00
35654;PMS1003;21773;50.010;19.972;2023-05-10T14:54:58;4.00;3.75;3.00
35654;PMS1003;21773;50.010;19.972;2023-05-10T14:58:03;4.40;4.00;4.00
35654;PMS1003;21773;50.010;19.972;2023-05-10T15:17:22;3.00;3.00;2.60
35654;PMS1003;21773;50.010;19.972;2023-05-10T15:20:26;5.00;5.00;5.00
35654;PMS1003;21773;50.010;19.972;2023-05-10T15:23:32;2.20;2.20;2.00
35654;PMS1003;21773;50.010;19.972;2023-05-10T15:26:35;5.00;4.00;3.00
35654;PMS1003;21773;50.010;19.972;2023-05-10T15:29:38;4.00;4.00;3.40
35654;PMS1003;21773;50.010;19.972;2023-05-10T15:32:43;4.50;4.50;3.50
35654;PMS1003;21773;50.010;19.972;2023-05-10T15:35:46;4.00;4.00;4.00
35654;PMS1003;21773;50.010;19.972;2023-05-10T15:38:50;5.00;4.40;4.00
35654;PMS1003;21773;50.010;19.972;2023-05-10T15:41:53;4.60;4.60;4.00
35654;PMS1003;21773;50.010;19.972;2023-05-10T15:44:56;4.80;4.40;3.80
35654;PMS1003;21773;50.010;19.972;2023-05-10T15:48:01;4.20;4.20;4.00
35654;PMS1003;21773;50.010;19.972;2023-05-10T15:51:05;5.75;5.00;4.25
35654;PMS1003;21773;50.010;19.972;2023-05-10T15:54:08;4.00;4.00;3.40
35654;PMS1003;21773;50.010;19.972;2023-05-10T15:57:12;4.00;3.00;3.00
35654;PMS1003;21773;50.010;19.972;2023-05-10T16:00:16;5.00;5.00;4.50
35654;PMS1003;21773;50.010;19.972;2023-05-10T16:03:21;5.00;4.00;4.00
35654;PMS1003;21773;50.010;19.972;2023-05-10T16:06:25;5.00;4.50;4.00
35654;PMS1003;21773;50.010;19.972;2023-05-10T16:09:31;5.00;4.00;4.00
35654;PMS1003;21773;50.010;19.972;2023-05-10T16:12:34;5.60;4.60;4.60
35654;PMS1003;21773;50.010;19.972;2023-05-10T16:15:37;4.40;4.40;4.00
35654;PMS1003;21773;50.010;19.972;2023-05-10T16:18:42;4.00;3.20;3.00
35654;PMS1003;21773;50.010;19.972;2023-05-10T16:21:45;6.00;5.60;5.00
35654;PMS1003;21773;50.010;19.972;2023-05-10T16:24:49;5.20;5.20;4.20
35654;PMS1003;21773;50.010;19.972;2023-05-10T16:27:54;3.25;3.00;3.00
35654;PMS1003;21773;50.010;19.972;2023-05-10T16:30:58;5.75;5.00;5.00
35654;PMS1003;21773;50.010;19.972;2023-05-10T16:34:02;6.00;6.00;5.00
35654;PMS1003;21773;50.010;19.972;2023-05-10T16:37:06;4.75;4.00;4.00
35654;PMS1003;21773;50.010;19.972;2023-05-10T16:40:09;5.00;4.80;4.20
35654;PMS1003;21773;50.010;19.972;2023-05-10T16:43:13;6.00;5.00;5.00
35654;PMS1003;21773;50.010;19.972;2023-05-10T16:46:16;5.50;5.00;5.00
35654;PMS1003;21773;50.010;19.972;2023-05-10T16:49:21;5.00;5.00;5.00
35654;PMS1003;21773;50.010;19.972;2023-05-10T16:52:26;3.00;3.00;3.00
35654;PMS1003;21773;50.010;19.972;2023-05-10T16:55:30;5.00;5.00;4.00
35654;PMS1003;21773;50.010;19.972;2023-05-10T16:58:33;5.00;5.00;4.00
35654;PMS1003;21773;50.010;19.972;2023-05-10T17:01:36;4.60;3.20;3.00
35654;PMS1003;21773;50.010;19.972;2023-05-10T17:04:41;8.00;7.00;7.00
35654;PMS1003;21773;50.010;19.972;2023-05-10T17:07:45;4.80;4.80;4.00
35654;PMS1003;21773;50.010;19.972;2023-05-10T17:10:48;5.00;5.00;5.00
35654;PMS1003;21773;50.010;19.972;2023-05-10T17:13:52;6.00;6.00;5.60
35654;PMS1003;21773;50.010;19.972;2023-05-10T17:16:55;7.00;6.60;5.60
35654;PMS1003;21773;50.010;19.972;2023-05-10T17:20:00;4.00;4.00;3.75
35654;PMS1003;21773;50.010;19.972;2023-05-10T17:23:03;6.60;6.00;6.00
35654;PMS1003;21773;50.010;19.972;2023-05-10T17:26:07;6.00;5.00;5.00
35654;PMS1003;21773;50.010;19.972;2023-05-10T17:29:10;6.20;5.20;4.80
35654;PMS1003;21773;50.010;19.972;2023-05-10T17:32:14;6.50;6.00;5.00
35654;PMS1003;21773;50.010;19.972;2023-05-10T17:35:19;7.00;7.00;6.40
35654;PMS1003;21773;50.010;19.972;2023-05-10T17:38:23;6.00;6.00;5.50
35654;PMS1003;21773;50.010;19.972;2023-05-10T17:41:26;4.40;4.40;4.00
35654;PMS1003;21773;50.010;19.972;2023-05-10T17:44:30;7.00;6.00;5.50
35654;PMS1003;21773;50.010;19.972;2023-05-10T17:47:33;7.50;7.50;7.00
35654;PMS1003;21773;50.010;19.972;2023-05-10T17:50:38;8.00;7.00;7.00